createdAt,value
2019-01-23T00:02:10.323Z,5.60
2019-01-23T00:04:40.336Z,5.60
2019-01-23T00:07:10.542Z,5.60
2019-01-23T00:09:40.456Z,5.60
2019-01-23T00:12:10.370Z,5.60
2019-01-23T00:14:40.579Z,5.50
2019-01-23T00:17:10.492Z,5.60
2019-01-23T00:19:40.405Z,5.60
2019-01-23T00:22:10.417Z,5.60
2019-01-23T00:24:40.348Z,5.60
2019-01-23T00:27:10.736Z,5.60
2019-01-23T00:29:40.652Z,5.60
2019-01-23T00:32:10.759Z,5.60
2019-01-23T00:34:40.868Z,5.60
2019-01-23T00:37:10.785Z,5.60
2019-01-23T00:39:40.697Z,5.60
2019-01-23T00:42:10.610Z,5.60
2019-01-23T00:44:40.522Z,5.60
2019-01-23T00:47:10.633Z,5.50
2019-01-23T00:49:40.545Z,5.50
2019-01-23T00:52:10.460Z,5.60
2019-01-23T00:54:40.669Z,5.60
2019-01-23T00:57:10.685Z,5.50
2019-01-23T00:59:40.595Z,5.50
2019-01-23T01:02:10.998Z,5.50
2019-01-23T01:04:41.209Z,5.50
2019-01-23T01:07:11.120Z,5.50
2019-01-23T01:09:41.033Z,5.50
2019-01-23T01:12:11.049Z,5.50
2019-01-23T01:14:41.259Z,5.50
2019-01-23T01:17:11.168Z,5.50
2019-01-23T01:19:41.179Z,5.40
2019-01-23T01:22:11.134Z,5.50
2019-01-23T01:24:41.138Z,5.50
2019-01-23T01:27:11.115Z,5.40
2019-01-23T01:29:41.619Z,5.40
2019-01-23T01:32:11.733Z,5.40
2019-01-23T01:34:41.643Z,5.40
2019-01-23T01:37:11.655Z,5.50
2019-01-23T01:39:41.569Z,5.40
2019-01-23T01:42:11.580Z,5.50
2019-01-23T01:44:41.495Z,5.50
2019-01-23T01:47:11.407Z,5.50
2019-01-23T01:49:41.321Z,5.50
2019-01-23T01:52:11.534Z,5.50
2019-01-23T01:54:42.131Z,5.50
2019-01-23T01:57:12.043Z,5.50
2019-01-23T01:59:42.253Z,5.50
2019-01-23T02:02:12.170Z,5.50
2019-01-23T02:04:42.059Z,5.50
2019-01-23T02:07:12.386Z,5.50
2019-01-23T02:09:45.503Z,5.50
2019-01-23T02:12:14.248Z,5.50
2019-01-23T02:14:44.210Z,5.50
2019-01-23T02:17:14.129Z,5.60
2019-01-23T02:19:44.116Z,5.60
2019-01-23T02:22:14.153Z,5.60
2019-01-23T02:24:44.098Z,5.60
2019-01-23T02:27:14.072Z,5.60
2019-01-23T02:29:44.319Z,5.60
2019-01-23T02:32:14.281Z,5.60
2019-01-23T02:34:44.307Z,5.60
2019-01-23T02:37:14.094Z,5.60
2019-01-23T02:39:44.018Z,5.70
2019-01-23T02:42:14.026Z,5.70
2019-01-23T02:44:44.466Z,5.70
2019-01-23T02:47:14.445Z,5.70
2019-01-23T02:49:44.356Z,5.70
2019-01-23T02:52:14.270Z,5.80
2019-01-23T02:54:44.199Z,5.80
2019-01-23T02:57:14.097Z,5.80
2019-01-23T02:59:44.013Z,5.80
2019-01-23T03:02:14.515Z,5.80
2019-01-23T03:04:44.926Z,5.80
2019-01-23T03:07:14.834Z,5.80
2019-01-23T03:09:44.943Z,5.80
2019-01-23T03:12:15.152Z,5.80
2019-01-23T03:14:45.329Z,5.80
2019-01-23T03:17:15.574Z,5.80
2019-01-23T03:19:46.170Z,5.80
2019-01-23T03:22:16.084Z,5.80
2019-01-23T03:24:46.095Z,5.80
2019-01-23T03:27:16.308Z,5.80
2019-01-23T03:29:46.229Z,5.80
2019-01-23T03:32:16.141Z,5.80
2019-01-23T03:34:46.633Z,5.80
2019-01-23T03:37:16.745Z,5.80
2019-01-23T03:39:46.657Z,5.80
2019-01-23T03:42:16.573Z,5.80
2019-01-23T03:44:46.782Z,5.90
2019-01-23T03:47:16.698Z,5.90
2019-01-23T03:49:46.606Z,5.90
2019-01-23T03:52:16.818Z,5.90
2019-01-23T03:54:46.733Z,5.90
2019-01-23T03:57:17.036Z,5.80
2019-01-23T03:59:46.949Z,5.80
2019-01-23T04:02:16.863Z,5.80
2019-01-23T04:04:47.364Z,5.80
2019-01-23T04:07:17.395Z,5.80
2019-01-23T04:09:47.290Z,5.80
2019-01-23T04:12:17.306Z,5.70
2019-01-23T04:14:47.516Z,5.80
2019-01-23T04:17:17.425Z,5.80
2019-01-23T04:19:47.651Z,5.80
2019-01-23T04:22:17.546Z,5.80
2019-01-23T04:24:47.518Z,5.80
2019-01-23T04:27:17.472Z,5.80
2019-01-23T04:29:47.386Z,5.80
2019-01-23T04:32:17.507Z,5.80
2019-01-23T04:34:47.518Z,5.90
2019-01-23T04:37:17.422Z,5.90
2019-01-23T04:39:47.341Z,5.90
2019-01-23T04:42:17.252Z,5.90
2019-01-23T04:44:47.167Z,5.90
2019-01-23T04:47:17.079Z,5.90
2019-01-23T04:49:47.100Z,5.90
2019-01-23T04:52:18.671Z,5.90
2019-01-23T04:54:48.780Z,5.90
2019-01-23T04:57:18.895Z,5.90
2019-01-23T04:59:48.809Z,5.90
2019-01-23T05:02:18.724Z,5.90
2019-01-23T05:04:49.027Z,6.00
2019-01-23T05:07:18.947Z,5.90
2019-01-23T05:09:49.249Z,5.90
2019-01-23T05:12:19.658Z,6.00
2019-01-23T05:14:49.860Z,5.90
2019-01-23T05:17:19.774Z,5.90
2019-01-23T05:19:49.688Z,5.90
2019-01-23T05:22:19.992Z,5.90
2019-01-23T05:24:49.991Z,5.90
2019-01-23T05:27:19.928Z,5.90
2019-01-23T05:29:54.851Z,5.80
2019-01-23T05:32:21.516Z,5.80
2019-01-23T05:34:51.630Z,5.90
2019-01-23T05:37:21.646Z,5.80
2019-01-23T05:39:51.845Z,5.90
2019-01-23T05:42:21.825Z,5.80
2019-01-23T05:44:52.170Z,5.80
2019-01-23T05:47:22.080Z,5.80
2019-01-23T05:49:51.994Z,5.80
2019-01-23T05:52:21.784Z,5.80
2019-01-23T05:54:52.214Z,5.90
2019-01-23T05:57:22.129Z,5.90
2019-01-23T05:59:52.038Z,5.90
2019-01-23T06:02:21.955Z,5.90
2019-01-23T06:04:52.161Z,5.90
2019-01-23T06:07:22.467Z,5.90
2019-01-23T06:09:52.384Z,5.90
2019-01-23T06:12:22.300Z,5.90
2019-01-23T06:14:52.314Z,5.90
2019-01-23T06:17:22.228Z,5.90
2019-01-23T06:19:52.333Z,5.90
2019-01-23T06:22:22.245Z,5.90
2019-01-23T06:24:52.160Z,5.90
2019-01-23T06:27:23.312Z,5.90
2019-01-23T06:29:53.362Z,5.90
2019-01-23T06:32:23.569Z,5.90
2019-01-23T06:34:53.483Z,6.00
2019-01-23T06:37:23.497Z,5.90
2019-01-23T06:39:53.412Z,5.90
2019-01-23T06:42:23.327Z,5.90
2019-01-23T06:44:53.727Z,6.00
2019-01-23T06:47:23.940Z,6.00
2019-01-23T06:49:53.849Z,6.00
2019-01-23T06:52:23.762Z,6.00
2019-01-23T06:54:53.874Z,6.00
2019-01-23T06:57:23.790Z,6.00
2019-01-23T06:59:53.701Z,6.00
2019-01-23T07:02:24.105Z,6.00
2019-01-23T07:04:54.614Z,6.00
2019-01-23T07:07:24.718Z,6.10
2019-01-23T07:09:54.730Z,6.10
2019-01-23T07:12:24.646Z,6.10
2019-01-23T07:14:54.558Z,6.20
2019-01-23T07:17:24.481Z,6.10
2019-01-23T07:19:54.484Z,6.10
2019-01-23T07:22:24.396Z,6.10
2019-01-23T07:24:54.709Z,6.10
2019-01-23T07:27:24.616Z,6.10
2019-01-23T07:29:54.531Z,6.10
2019-01-23T07:32:24.541Z,6.10
2019-01-23T07:34:54.455Z,6.20
2019-01-23T07:37:24.369Z,6.20
2019-01-23T07:39:54.407Z,6.20
2019-01-23T07:42:24.690Z,6.20
2019-01-23T07:44:54.800Z,6.20
2019-01-23T07:47:24.711Z,6.10
2019-01-23T07:49:54.627Z,6.20
2019-01-23T07:52:24.734Z,6.30
2019-01-23T07:54:54.949Z,6.30
2019-01-23T07:57:24.957Z,6.30
2019-01-23T07:59:54.869Z,6.30
2019-01-23T08:02:24.880Z,6.20
2019-01-23T08:04:55.395Z,6.20
2019-01-23T08:07:25.299Z,6.30
2019-01-23T08:09:55.602Z,6.20
2019-01-23T08:12:25.516Z,6.20
2019-01-23T08:14:55.530Z,6.20
2019-01-23T08:17:32.572Z,6.20
2019-01-23T08:19:57.321Z,6.20
2019-01-23T08:22:27.235Z,6.20
2019-01-23T08:24:57.549Z,6.20
2019-01-23T08:27:27.631Z,6.20
2019-01-23T08:29:58.159Z,6.20
2019-01-23T08:32:28.265Z,6.30
2019-01-23T08:34:59.066Z,6.30
2019-01-23T08:37:29.074Z,6.30
2019-01-23T08:39:59.185Z,6.20
2019-01-23T08:42:29.103Z,6.20
2019-01-23T08:44:59.115Z,6.30
2019-01-23T08:47:29.030Z,6.30
2019-01-23T08:49:58.940Z,6.30
2019-01-23T08:52:28.947Z,6.30
2019-01-23T08:54:59.550Z,6.30
2019-01-23T08:57:29.464Z,6.30
2019-01-23T08:59:59.991Z,6.40
2019-01-23T09:02:29.978Z,6.40
2019-01-23T09:04:59.811Z,6.40
2019-01-23T09:07:29.807Z,6.40
2019-01-23T09:09:59.923Z,6.40
2019-01-23T09:12:29.830Z,6.40
2019-01-23T09:14:59.783Z,6.40
2019-01-23T09:17:29.950Z,6.40
2019-01-23T09:19:59.843Z,6.30
2019-01-23T09:22:29.777Z,6.30
2019-01-23T09:24:59.853Z,6.30
2019-01-23T09:27:29.801Z,6.30
2019-01-23T09:29:59.763Z,6.40
2019-01-23T09:33:08.950Z,6.40
2019-01-23T09:36:04.227Z,6.30
2019-01-23T09:38:46.964Z,6.40
2019-01-23T09:41:26.762Z,6.50
2019-01-23T09:44:06.967Z,6.50
2019-01-23T09:47:07.290Z,6.50
2019-01-23T09:49:41.622Z,6.50
2019-01-23T09:52:21.464Z,6.50
2019-01-23T09:54:51.577Z,6.50
2019-01-23T09:57:21.685Z,6.60
2019-01-23T09:59:51.698Z,6.70
2019-01-23T10:02:21.613Z,6.70
2019-01-23T10:04:51.535Z,6.60
2019-01-23T10:07:21.447Z,6.50
2019-01-23T10:09:51.350Z,6.60
2019-01-23T10:12:21.265Z,6.50
2019-01-23T10:14:51.571Z,6.50
2019-01-23T10:17:21.580Z,6.50
2019-01-23T10:19:52.692Z,6.60
2019-01-23T10:22:23.473Z,6.70
2019-01-23T10:24:54.131Z,6.80
2019-01-23T10:27:23.992Z,6.80
2019-01-23T10:29:54.237Z,6.80
2019-01-23T10:32:24.407Z,6.80
2019-01-23T10:34:54.318Z,6.80
2019-01-23T10:37:24.626Z,6.80
2019-01-23T10:39:54.538Z,6.80
2019-01-23T10:42:24.452Z,6.80
2019-01-23T10:44:54.666Z,6.80
2019-01-23T10:47:24.690Z,6.80
2019-01-23T10:49:54.585Z,6.90
2019-01-23T10:52:24.599Z,6.90
2019-01-23T10:54:54.610Z,6.90
2019-01-23T10:57:24.916Z,7.00
2019-01-23T10:59:54.884Z,7.00
2019-01-23T11:02:26.315Z,7.00
2019-01-23T11:04:56.629Z,7.00
2019-01-23T11:07:26.537Z,7.10
2019-01-23T11:09:56.450Z,7.10
2019-01-23T11:12:26.628Z,7.10
2019-01-23T11:14:56.668Z,7.10
2019-01-23T11:17:26.679Z,7.00
2019-01-23T11:19:56.592Z,7.00
2019-01-23T11:22:26.449Z,7.10
2019-01-23T11:24:56.521Z,7.10
2019-01-23T11:27:26.727Z,7.10
2019-01-23T11:29:56.932Z,7.20
2019-01-23T11:32:26.848Z,7.20
2019-01-23T11:34:56.819Z,7.30
2019-01-23T11:37:26.774Z,7.30
2019-01-23T11:39:57.083Z,7.30
2019-01-23T11:42:27.470Z,7.30
2019-01-23T11:44:57.504Z,7.30
2019-01-23T11:47:27.513Z,7.30
2019-01-23T11:49:57.424Z,7.20
2019-01-23T11:52:27.336Z,7.20
2019-01-23T11:54:57.251Z,7.20
2019-01-23T11:57:27.163Z,7.40
2019-01-23T11:59:57.079Z,7.30
2019-01-23T12:02:30.948Z,7.20
2019-01-23T12:04:59.755Z,7.30
2019-01-23T12:07:29.668Z,7.40
2019-01-23T12:09:59.582Z,7.60
2019-01-23T12:12:29.495Z,7.80
2019-01-23T12:14:59.809Z,8.00
2019-01-23T12:17:30.209Z,8.00
2019-01-23T12:20:00.432Z,8.00
2019-01-23T12:22:30.327Z,8.10
2019-01-23T12:25:00.786Z,8.30
2019-01-23T12:27:31.042Z,8.30
2019-01-23T12:30:00.952Z,8.20
2019-01-23T12:32:30.866Z,8.00
2019-01-23T12:35:00.779Z,7.90
2019-01-23T12:37:30.693Z,7.80
2019-01-23T12:40:00.606Z,7.70
2019-01-23T12:42:30.524Z,7.70
2019-01-23T12:45:00.630Z,7.60
2019-01-23T12:47:30.542Z,7.60
2019-01-23T12:50:00.462Z,7.80
2019-01-23T12:52:30.470Z,7.90
2019-01-23T12:55:00.384Z,8.00
2019-01-23T12:57:30.598Z,8.50
2019-01-23T13:00:05.012Z,8.60
2019-01-23T13:02:32.283Z,8.20
2019-01-23T13:05:02.413Z,8.60
2019-01-23T13:07:33.591Z,8.80
2019-01-23T13:10:03.891Z,8.90
2019-01-23T13:12:34.951Z,8.50
2019-01-23T13:15:07.956Z,8.30
2019-01-23T13:17:38.452Z,8.10
2019-01-23T13:20:12.869Z,8.10
2019-01-23T13:22:42.799Z,8.30
2019-01-23T13:25:16.943Z,8.20
2019-01-23T13:27:47.152Z,8.10
2019-01-23T13:30:21.404Z,8.10
2019-01-23T13:32:52.186Z,8.20
2019-01-23T13:35:32.824Z,8.70
2019-01-23T13:38:04.378Z,9.20
2019-01-23T13:40:37.456Z,8.70
2019-01-23T13:43:08.551Z,8.50
2019-01-23T13:45:38.758Z,8.90
2019-01-23T13:48:09.553Z,9.00
2019-01-23T13:50:39.519Z,9.10
2019-01-23T13:53:09.480Z,9.60
2019-01-23T13:55:39.395Z,9.40
2019-01-23T13:58:09.307Z,8.90
2019-01-23T14:00:42.370Z,8.80
2019-01-23T14:03:12.279Z,8.60
2019-01-23T14:05:42.411Z,8.70
2019-01-23T14:08:13.190Z,9.00
2019-01-23T14:10:43.106Z,9.70
2019-01-23T14:13:13.112Z,9.40
2019-01-23T14:15:43.124Z,9.00
2019-01-23T14:18:13.139Z,8.70
2019-01-23T14:20:43.150Z,8.40
2019-01-23T14:23:13.356Z,7.90
2019-01-23T14:25:43.274Z,7.60
2019-01-23T14:28:13.316Z,7.60
2019-01-23T14:30:44.832Z,7.70
2019-01-23T14:33:18.286Z,7.70
2019-01-23T14:35:48.427Z,7.70
2019-01-23T14:38:18.441Z,7.70
2019-01-23T14:40:48.354Z,7.50
2019-01-23T14:43:18.858Z,7.40
2019-01-23T14:45:49.063Z,7.20
2019-01-23T14:48:18.977Z,7.10
2019-01-23T14:50:49.284Z,7.00
2019-01-23T14:53:19.592Z,6.90
2019-01-23T14:55:49.509Z,6.80
2019-01-23T14:58:19.420Z,6.80
2019-01-23T15:00:49.440Z,6.70
2019-01-23T15:03:20.042Z,6.50
2019-01-23T15:05:50.043Z,6.40
2019-01-23T15:08:19.970Z,6.50
2019-01-23T15:10:49.870Z,6.60
2019-01-23T15:13:19.882Z,6.50
2019-01-23T15:15:49.793Z,6.50
2019-01-23T15:18:19.906Z,6.50
2019-01-23T15:20:49.817Z,6.50
2019-01-23T15:23:19.928Z,6.50
2019-01-23T15:25:50.135Z,6.60
2019-01-23T15:28:20.051Z,6.60
2019-01-23T15:30:49.963Z,6.70
2019-01-23T15:33:19.882Z,6.50
2019-01-23T15:35:49.989Z,6.60
2019-01-23T15:38:19.999Z,6.50
2019-01-23T15:40:50.010Z,6.40
2019-01-23T15:43:19.923Z,6.40
2019-01-23T15:45:49.837Z,6.30
2019-01-23T15:48:19.749Z,6.30
2019-01-23T15:50:49.667Z,6.40
2019-01-23T15:53:20.362Z,6.40
2019-01-23T15:55:50.276Z,6.40
2019-01-23T15:58:20.192Z,6.40
2019-01-23T16:00:50.106Z,6.40
2019-01-23T16:03:20.017Z,6.40
2019-01-23T16:05:50.127Z,6.50
2019-01-23T16:08:20.049Z,6.40
2019-01-23T16:10:50.152Z,6.40
2019-01-23T16:13:20.358Z,6.40
2019-01-23T16:15:52.664Z,6.40
2019-01-23T16:18:25.335Z,6.50
2019-01-23T16:20:55.365Z,6.50
2019-01-23T16:23:25.435Z,6.60
2019-01-23T16:25:55.486Z,6.50
2019-01-23T16:28:25.932Z,6.50
2019-01-23T16:30:55.758Z,6.50
2019-01-23T16:33:25.662Z,6.50
2019-01-23T16:35:55.875Z,6.50
2019-01-23T16:38:25.885Z,6.50
2019-01-23T16:40:55.663Z,6.40
2019-01-23T16:43:25.713Z,6.40
2019-01-23T16:45:57.096Z,6.40
2019-01-23T16:48:27.502Z,6.30
2019-01-23T16:50:57.416Z,6.30
2019-01-23T16:53:28.507Z,6.30
2019-01-23T16:55:58.424Z,6.20
2019-01-23T16:58:28.229Z,6.10
2019-01-23T17:00:58.148Z,6.00
2019-01-23T17:03:28.067Z,5.90
2019-01-23T17:06:03.123Z,5.90
2019-01-23T17:08:33.417Z,5.80
2019-01-23T17:11:03.509Z,5.80
2019-01-23T17:13:33.419Z,5.70
2019-01-23T17:16:03.438Z,5.70
2019-01-23T17:18:33.345Z,5.70
2019-01-23T17:21:03.654Z,5.60
2019-01-23T17:23:33.759Z,5.60
2019-01-23T17:26:04.106Z,5.60
2019-01-23T17:28:34.472Z,5.60
2019-01-23T17:31:05.074Z,5.50
2019-01-23T17:33:34.989Z,5.50
2019-01-23T17:36:05.162Z,5.50
2019-01-23T17:38:35.110Z,5.40
2019-01-23T17:41:05.321Z,5.40
2019-01-23T17:43:35.907Z,5.40
2019-01-23T17:46:05.835Z,5.30
2019-01-23T17:48:36.007Z,5.30
2019-01-23T17:51:06.449Z,5.30
2019-01-23T17:53:36.953Z,5.30
2019-01-23T17:56:06.866Z,5.30
2019-01-23T17:58:36.780Z,5.30
2019-01-23T18:01:06.676Z,5.20
2019-01-23T18:03:36.705Z,5.20
2019-01-23T18:06:07.067Z,5.20
2019-01-23T18:08:37.238Z,5.10
2019-01-23T18:11:07.227Z,5.10
2019-01-23T18:13:37.291Z,5.20
2019-01-23T18:16:08.928Z,5.10
2019-01-23T18:18:39.328Z,5.10
2019-01-23T18:21:09.538Z,5.10
2019-01-23T18:23:39.744Z,5.10
2019-01-23T18:26:09.655Z,5.10
2019-01-23T18:28:39.571Z,5.10
2019-01-23T18:31:16.401Z,5.10
2019-01-23T18:33:56.507Z,5.00
2019-01-23T18:37:10.755Z,5.00
2019-01-23T18:40:09.101Z,5.00
2019-01-23T18:43:19.950Z,5.00
2019-01-23T18:46:30.199Z,5.00
2019-01-23T18:49:52.654Z,5.00
2019-01-23T18:52:22.516Z,5.00
2019-01-23T18:54:53.029Z,5.00
2019-01-23T18:57:32.931Z,5.00
2019-01-23T19:00:03.863Z,5.00
2019-01-23T19:02:33.983Z,4.90
2019-01-23T19:05:05.454Z,4.90
2019-01-23T19:07:35.861Z,4.90
2019-01-23T19:10:10.063Z,5.00
2019-01-23T19:12:40.209Z,4.90
2019-01-23T19:15:20.345Z,4.90
2019-01-23T19:17:52.682Z,4.90
2019-01-23T19:20:23.468Z,4.90
2019-01-23T19:22:54.317Z,4.90
2019-01-23T19:25:24.832Z,4.90
2019-01-23T19:27:54.736Z,4.90
2019-01-23T19:30:25.451Z,4.90
2019-01-23T19:32:55.513Z,4.80
2019-01-23T19:35:25.761Z,4.80
2019-01-23T19:37:55.960Z,4.80
2019-01-23T19:40:25.928Z,4.80
2019-01-23T19:42:56.181Z,4.80
2019-01-23T19:45:26.331Z,4.80
2019-01-23T19:47:56.797Z,4.80
2019-01-23T19:50:26.811Z,4.80
2019-01-23T19:52:56.936Z,4.70
2019-01-23T19:55:26.832Z,4.70
2019-01-23T19:57:57.032Z,4.70
2019-01-23T20:00:27.043Z,4.70
2019-01-23T20:02:56.959Z,4.70
2019-01-23T20:05:27.661Z,4.60
2019-01-23T20:07:57.770Z,4.70
2019-01-23T20:10:27.883Z,4.70
2019-01-23T20:12:58.389Z,4.70
2019-01-23T20:15:29.229Z,4.70
2019-01-23T20:17:59.871Z,4.60
2019-01-23T20:20:30.487Z,4.60
2019-01-23T20:23:01.130Z,4.60
2019-01-23T20:25:31.665Z,4.60
2019-01-23T20:28:03.140Z,4.60
2019-01-23T20:30:37.645Z,4.60
2019-01-23T20:33:08.299Z,4.60
2019-01-23T20:35:38.694Z,4.50
2019-01-23T20:38:09.912Z,4.50
2019-01-23T20:40:40.413Z,4.50
2019-01-23T20:43:12.599Z,4.50
2019-01-23T20:45:43.087Z,4.50
2019-01-23T20:48:13.590Z,4.50
2019-01-23T20:50:43.990Z,4.50
2019-01-23T20:53:14.454Z,4.50
2019-01-23T20:55:44.959Z,4.50
2019-01-23T20:58:15.405Z,4.50
2019-01-23T21:00:46.406Z,4.50
2019-01-23T21:03:16.713Z,4.40
2019-01-23T21:05:48.002Z,4.40
2019-01-23T21:08:17.915Z,4.50
2019-01-23T21:10:48.511Z,4.50
2019-01-23T21:13:18.422Z,4.40
2019-01-23T21:15:48.445Z,4.40
2019-01-23T21:18:18.836Z,4.40
2019-01-23T21:20:49.251Z,4.40
2019-01-23T21:23:19.260Z,4.40
2019-01-23T21:25:49.654Z,4.40
2019-01-23T21:28:19.668Z,4.40
2019-01-23T21:30:49.912Z,4.40
2019-01-23T21:33:20.514Z,4.40
2019-01-23T21:35:50.690Z,4.40
2019-01-23T21:38:20.701Z,4.40
2019-01-23T21:40:50.813Z,4.40
2019-01-23T21:43:22.000Z,4.40
2019-01-23T21:45:52.306Z,4.40
2019-01-23T21:48:22.419Z,4.30
2019-01-23T21:50:52.992Z,4.30
2019-01-23T21:53:23.572Z,4.30
2019-01-23T21:55:53.739Z,4.30
2019-01-23T21:58:23.643Z,4.30
2019-01-23T22:00:54.602Z,4.30
2019-01-23T22:03:24.551Z,4.20
2019-01-23T22:05:54.467Z,4.20
2019-01-23T22:08:24.885Z,4.20
2019-01-23T22:10:54.982Z,4.20
2019-01-23T22:13:25.007Z,4.10
2019-01-23T22:15:55.201Z,4.10
2019-01-23T22:18:25.711Z,4.10
2019-01-23T22:20:55.915Z,4.10
2019-01-23T22:23:25.849Z,4.00
2019-01-23T22:25:55.713Z,4.00
2019-01-23T22:28:26.789Z,4.00
2019-01-23T22:30:57.362Z,4.00
2019-01-23T22:33:27.442Z,4.00
2019-01-23T22:35:57.303Z,4.00
2019-01-23T22:38:27.474Z,4.00
2019-01-23T22:40:57.597Z,4.00
2019-01-23T22:43:27.688Z,4.00
2019-01-23T22:45:57.700Z,4.00
2019-01-23T22:48:27.808Z,3.90
2019-01-23T22:50:57.724Z,3.90
2019-01-23T22:53:27.780Z,3.90
2019-01-23T22:55:58.288Z,3.90
2019-01-23T22:58:28.447Z,3.80
2019-01-23T23:01:14.974Z,3.80
2019-01-23T23:03:45.674Z,3.80
2019-01-23T23:06:15.791Z,3.80
2019-01-23T23:08:45.943Z,3.80
2019-01-23T23:11:16.399Z,3.80
2019-01-23T23:13:46.555Z,3.80
2019-01-23T23:16:16.519Z,3.80
2019-01-23T23:18:46.726Z,3.70
2019-01-23T23:21:16.746Z,3.70
2019-01-23T23:23:46.946Z,3.70
2019-01-23T23:26:16.962Z,3.70
2019-01-23T23:28:47.032Z,3.70
2019-01-23T23:31:17.083Z,3.70
2019-01-23T23:33:47.900Z,3.60
2019-01-23T23:36:17.894Z,3.60
2019-01-23T23:38:47.832Z,3.60
2019-01-23T23:41:17.742Z,3.50
2019-01-23T23:43:47.562Z,3.50
2019-01-23T23:46:17.738Z,3.50
2019-01-23T23:48:47.756Z,3.60
2019-01-23T23:51:17.889Z,3.50
2019-01-23T23:53:47.951Z,3.50
2019-01-23T23:56:17.890Z,3.50
2019-01-23T23:58:48.392Z,3.50
